Time;durP1;ratioP1;P1;durP2;ratioP2;P2;SDS_P1;SDS_P2;PMS_P1;PMS_P2;Temp;Humidity;BMP_temperature;BMP_pressure;BME280_temperature;BME280_humidity;BME280_pressure;Samples;Min_cycle;Max_cycle;Signal;HPM_P1;HPM_P2
2024/03/27 00:02:18;;;;;;;27.10;20.00;;;;;;;5.51;75.67;99811.52;108601;1256;59823;-62
2024/03/27 00:04:45;;;;;;;30.30;20.30;;;;;;;5.52;75.63;99809.77;108758;1256;138513;-68
2024/03/27 00:07:12;;;;;;;29.80;19.80;;;;;;;5.53;75.66;99804.08;108985;1255;73861;-62
2024/03/27 00:09:38;;;;;;;27.30;19.20;;;;;;;5.53;75.55;99803.73;109004;1255;65329;-63
2024/03/27 00:12:05;;;;;;;27.60;19.80;;;;;;;5.54;75.51;99804.48;108632;1256;138866;-63
2024/03/27 00:14:32;;;;;;;27.20;19.80;;;;;;;5.55;75.49;99803.98;108775;1256;59719;-62
2024/03/27 00:16:58;;;;;;;30.90;20.10;;;;;;;5.54;75.38;99802.90;108656;1256;139417;-62
2024/03/27 00:19:25;;;;;;;26.90;19.30;;;;;;;5.52;75.43;99799.55;107333;1256;76001;-61
2024/03/27 00:21:51;;;;;;;30.00;19.70;;;;;;;5.51;75.31;99795.17;104886;1257;65484;-61
2024/03/27 00:24:18;;;;;;;24.80;19.00;;;;;;;5.50;75.38;99790.25;104425;1262;139118;-61
2024/03/27 00:26:45;;;;;;;26.70;18.90;;;;;;;5.49;75.35;99791.61;104699;1260;62055;-61
2024/03/27 00:29:12;;;;;;;25.70;18.90;;;;;;;5.47;75.31;99786.17;104727;1256;138409;-68
2024/03/27 00:31:40;;;;;;;27.90;19.50;;;;;;;5.44;75.36;99784.50;104793;1262;73935;-61
2024/03/27 00:34:07;;;;;;;26.50;19.10;;;;;;;5.42;75.43;99782.89;104682;1263;138705;-61
2024/03/27 00:36:33;;;;;;;29.50;20.70;;;;;;;5.38;75.44;99785.20;104860;1257;73153;-61
2024/03/27 00:39:00;;;;;;;27.10;20.20;;;;;;;5.33;75.37;99780.86;104802;1256;62302;-61
2024/03/27 00:41:27;;;;;;;25.60;18.40;;;;;;;5.29;75.44;99775.52;104533;1259;139195;-61
2024/03/27 00:43:54;;;;;;;29.30;19.40;;;;;;;5.25;75.50;99775.23;104598;1257;74872;-61
2024/03/27 00:46:21;;;;;;;29.90;19.90;;;;;;;5.21;75.54;99772.69;104563;1256;138798;-61
2024/03/27 00:48:47;;;;;;;27.50;19.90;;;;;;;5.19;75.52;99767.59;104818;1261;71680;-61
2024/03/27 00:51:14;;;;;;;30.50;20.00;;;;;;;5.17;75.62;99766.47;104815;1256;62158;-61
2024/03/27 00:53:40;;;;;;;29.90;20.70;;;;;;;5.15;75.64;99766.05;104705;1256;139791;-61
2024/03/27 00:56:07;;;;;;;33.70;20.40;;;;;;;5.13;75.62;99763.20;104768;1256;76209;-61
2024/03/27 00:58:34;;;;;;;35.80;20.40;;;;;;;5.12;75.77;99758.65;104624;1257;139193;-61
2024/03/27 01:01:00;;;;;;;29.60;20.10;;;;;;;5.12;75.80;99759.19;104620;1256;73682;-61
2024/03/27 01:03:27;;;;;;;27.50;19.60;;;;;;;5.11;75.82;99756.20;103818;1261;62125;-61
2024/03/27 01:05:54;;;;;;;31.60;20.80;;;;;;;5.11;75.78;99755.86;104365;1259;137787;-61
2024/03/27 01:08:21;;;;;;;30.90;20.60;;;;;;;5.10;75.85;99752.15;104658;1256;76058;-61
2024/03/27 01:10:50;;;;;;;31.90;20.20;;;;;;;5.09;75.85;99750.39;104673;1259;137860;-61
2024/03/27 01:13:17;;;;;;;32.10;21.40;;;;;;;5.07;75.84;99747.02;104435;1257;73109;-62
2024/03/27 01:15:48;;;;;;;29.90;21.20;;;;;;;5.02;75.77;99748.43;104690;1257;62154;-60
2024/03/27 01:18:15;;;;;;;30.30;19.90;;;;;;;4.97;75.80;99744.80;108827;1256;138221;-61
2024/03/27 01:20:43;;;;;;;32.80;20.10;;;;;;;4.91;75.88;99745.16;108910;1256;76675;-61
2024/03/27 01:23:10;;;;;;;30.10;20.10;;;;;;;4.88;75.87;99742.97;108711;1256;138774;-61
2024/03/27 01:25:37;;;;;;;31.00;20.10;;;;;;;4.86;75.95;99739.79;104815;1259;72234;-60
2024/03/27 01:28:04;;;;;;;30.40;20.40;;;;;;;4.84;76.00;99738.66;104685;1256;139693;-61
2024/03/27 01:30:31;;;;;;;29.70;21.10;;;;;;;4.81;75.92;99737.71;104752;1257;62242;-61
2024/03/27 01:32:57;;;;;;;32.60;20.90;;;;;;;4.79;75.81;99737.13;104633;1256;73665;-61
2024/03/27 01:35:25;;;;;;;28.30;19.30;;;;;;;4.79;76.05;99732.94;104784;1257;139237;-61
2024/03/27 01:37:51;;;;;;;30.50;19.10;;;;;;;4.80;76.18;99726.90;104777;1259;72063;-62
2024/03/27 01:40:19;;;;;;;28.20;19.30;;;;;;;4.80;76.20;99728.98;104743;1259;139182;-63
2024/03/27 01:42:45;;;;;;;31.00;19.90;;;;;;;4.80;76.19;99725.70;105277;1259;62133;-62
2024/03/27 01:45:13;;;;;;;27.50;18.30;;;;;;;4.79;76.22;99722.00;104622;1256;76505;-62
2024/03/27 01:47:42;;;;;;;25.40;18.30;;;;;;;4.78;76.13;99721.96;104560;1256;138645;-62
2024/03/27 01:50:11;;;;;;;28.00;18.60;;;;;;;4.77;76.26;99720.38;104496;1256;73761;-61
2024/03/27 01:52:38;;;;;;;30.20;19.50;;;;;;;4.76;76.41;99717.75;104752;1256;138745;-61
2024/03/27 01:55:05;;;;;;;29.60;18.90;;;;;;;4.75;76.32;99711.29;104752;1256;62763;-61
2024/03/27 01:57:31;;;;;;;25.30;17.90;;;;;;;4.75;76.35;99714.05;108739;1256;75953;-62
2024/03/27 01:59:58;;;;;;;27.50;18.30;;;;;;;4.76;76.31;99711.98;108658;1256;137914;-62
2024/03/27 02:02:25;;;;;;;27.00;17.60;;;;;;;4.76;76.43;99713.21;108773;1256;74236;-63
2024/03/27 02:04:51;;;;;;;25.80;17.50;;;;;;;4.76;76.24;99713.04;107363;1263;139235;-61
2024/03/27 02:07:18;;;;;;;28.30;17.40;;;;;;;4.76;76.33;99710.77;104666;1256;62146;-61
2024/03/27 02:09:44;;;;;;;29.40;18.80;;;;;;;4.75;76.33;99707.27;104656;1256;75504;-61
2024/03/27 02:12:11;;;;;;;27.80;19.60;;;;;;;4.74;76.38;99707.42;104422;1259;139289;-61
2024/03/27 02:14:37;;;;;;;28.60;20.30;;;;;;;4.73;76.25;99701.13;104553;1259;74368;-61
2024/03/27 02:17:04;;;;;;;28.20;20.40;;;;;;;4.69;76.19;99698.23;104531;1256;139023;-61
2024/03/27 02:19:31;;;;;;;29.40;20.00;;;;;;;4.66;76.18;99697.98;104736;1256;62061;-61
2024/03/27 02:21:57;;;;;;;27.10;18.40;;;;;;;4.64;76.18;99694.74;104610;1260;139328;-61
2024/03/27 02:24:29;;;;;;;25.20;18.00;;;;;;;4.60;76.21;99696.38;104543;1256;67016;-61
2024/03/27 02:26:56;;;;;;;27.50;19.20;;;;;;;4.56;76.12;99692.08;104400;1259;74850;-61
2024/03/27 02:29:23;;;;;;;30.20;20.00;;;;;;;4.53;76.26;99691.27;104436;1256;138056;-61
2024/03/27 02:31:49;;;;;;;31.40;20.70;;;;;;;4.47;76.22;99688.84;104601;1260;61984;-61
2024/03/27 02:34:16;;;;;;;29.00;19.10;;;;;;;4.42;76.31;99684.17;104540;1260;138059;-61
2024/03/27 02:36:43;;;;;;;29.20;18.90;;;;;;;4.38;76.23;99685.74;104849;1259;66161;-61
2024/03/27 02:39:09;;;;;;;28.10;19.20;;;;;;;4.33;76.35;99682.12;104616;1257;73337;-61
2024/03/27 02:41:36;;;;;;;34.10;19.40;;;;;;;4.29;76.43;99678.70;108628;1256;137942;-62
2024/03/27 02:44:03;;;;;;;28.70;19.80;;;;;;;4.24;76.53;99677.16;108796;1259;61516;-62
2024/03/27 02:46:29;;;;;;;31.40;19.40;;;;;;;4.20;76.50;99671.45;108634;1255;138839;-62
2024/03/27 02:48:56;;;;;;;28.20;19.10;;;;;;;4.17;76.48;99673.63;108847;1256;67633;-61
2024/03/27 02:51:22;;;;;;;28.60;19.40;;;;;;;4.14;76.56;99672.11;108930;1256;73252;-61
2024/03/27 02:53:49;;;;;;;30.50;18.90;;;;;;;4.12;76.62;99671.36;108853;1256;138915;-61
2024/03/27 02:56:16;;;;;;;32.60;20.00;;;;;;;4.11;76.74;99666.64;108996;1256;66244;-67
2024/03/27 02:58:42;;;;;;;28.90;19.30;;;;;;;4.11;76.79;99661.96;108670;1256;139006;-67
2024/03/27 03:01:09;;;;;;;29.20;18.50;;;;;;;4.12;76.88;99662.67;108801;1256;65200;-67
2024/03/27 03:03:38;;;;;;;27.90;19.70;;;;;;;4.14;76.91;99657.37;108513;1256;71670;-61
2024/03/27 03:06:04;;;;;;;28.10;17.80;;;;;;;4.16;76.95;99653.27;108632;1256;139141;-61
2024/03/27 03:08:31;;;;;;;30.50;19.30;;;;;;;4.18;76.86;99648.30;108961;1256;60436;-62
2024/03/27 03:10:57;;;;;;;29.40;19.10;;;;;;;4.22;77.13;99645.30;108875;1256;138805;-61
2024/03/27 03:13:24;;;;;;;29.60;19.40;;;;;;;4.26;77.08;99641.06;108782;1257;64787;-61
2024/03/27 03:15:50;;;;;;;25.10;18.00;;;;;;;4.30;77.09;99641.55;108604;1256;72612;-62
2024/03/27 03:18:17;;;;;;;29.50;18.40;;;;;;;4.34;77.11;99642.39;108680;1256;139003;-61
2024/03/27 03:20:43;;;;;;;27.40;18.40;;;;;;;4.38;77.05;99639.19;108723;1256;60384;-61
2024/03/27 03:23:10;;;;;;;27.90;18.50;;;;;;;4.41;76.95;99643.31;108903;1256;139349;-62
2024/03/27 03:25:36;;;;;;;25.80;18.00;;;;;;;4.43;77.02;99636.61;108865;1256;65140;-61
2024/03/27 03:28:03;;;;;;;28.40;17.70;;;;;;;4.46;76.99;99631.48;105961;1256;138391;-61
2024/03/27 03:30:30;;;;;;;28.50;19.50;;;;;;;4.47;76.96;99628.58;104648;1257;62119;-61
2024/03/27 03:32:56;;;;;;;28.00;18.60;;;;;;;4.49;76.98;99620.96;104781;1255;62177;-61
2024/03/27 03:35:25;;;;;;;28.70;17.50;;;;;;;4.48;76.86;99618.86;104752;1257;138011;-62
2024/03/27 03:37:52;;;;;;;31.80;18.70;;;;;;;4.47;76.92;99619.88;104794;1256;65470;-62
2024/03/27 03:40:18;;;;;;;30.50;18.80;;;;;;;4.45;76.79;99617.36;104494;1256;138469;-62
2024/03/27 03:42:45;;;;;;;28.10;18.40;;;;;;;4.41;76.77;99611.70;104682;1256;62150;-61
2024/03/27 03:45:12;;;;;;;29.20;19.50;;;;;;;4.39;76.97;99609.38;104619;1256;62092;-61
2024/03/27 03:47:38;;;;;;;30.20;20.10;;;;;;;4.38;76.86;99604.30;104394;1262;139131;-61
2024/03/27 03:50:05;;;;;;;31.50;20.70;;;;;;;4.35;77.04;99601.77;104740;1260;67620;-61
2024/03/27 03:52:32;;;;;;;28.40;18.50;;;;;;;4.33;76.86;99598.58;104833;1261;139325;-61
2024/03/27 03:54:58;;;;;;;32.60;20.20;;;;;;;4.31;76.91;99599.04;104842;1256;62489;-61
2024/03/27 03:57:25;;;;;;;27.80;19.20;;;;;;;4.28;76.85;99596.88;104668;1259;62061;-62
2024/03/27 03:59:52;;;;;;;27.70;18.00;;;;;;;4.26;76.90;99598.20;104602;1256;138905;-61
2024/03/27 04:02:18;;;;;;;28.60;18.80;;;;;;;4.24;76.93;99599.02;104691;1256;67117;-62
2024/03/27 04:04:45;;;;;;;28.00;17.10;;;;;;;4.22;76.91;99599.79;104552;1257;139473;-62
2024/03/27 04:07:11;;;;;;;23.80;17.50;;;;;;;4.20;76.97;99596.96;104861;1256;62186;-62
2024/03/27 04:09:38;;;;;;;26.70;17.20;;;;;;;4.19;77.02;99592.92;104910;1261;62061;-62
2024/03/27 04:12:05;;;;;;;27.10;17.10;;;;;;;4.17;77.02;99592.71;104676;1256;138272;-62
2024/03/27 04:14:32;;;;;;;24.50;16.80;;;;;;;4.17;77.07;99592.01;108483;1256;66705;-62
2024/03/27 04:16:58;;;;;;;25.10;17.90;;;;;;;4.15;77.09;99597.67;108632;1256;138168;-62
2024/03/27 04:19:25;;;;;;;30.20;18.20;;;;;;;4.16;77.11;99596.15;108843;1256;59764;-63
2024/03/27 04:21:52;;;;;;;26.60;17.20;;;;;;;4.17;77.09;99595.48;106721;1259;60373;-62
2024/03/27 04:24:18;;;;;;;28.80;18.30;;;;;;;4.18;77.15;99591.86;104583;1256;138244;-61
2024/03/27 04:26:45;;;;;;;26.90;17.90;;;;;;;4.18;77.06;99591.68;104561;1257;67017;-61
2024/03/27 04:29:11;;;;;;;24.50;17.20;;;;;;;4.18;77.03;99586.83;104647;1259;139160;-67
2024/03/27 04:31:38;;;;;;;23.80;16.40;;;;;;;4.19;77.15;99589.98;104718;1258;62163;-66
2024/03/27 04:34:06;;;;;;;23.70;15.80;;;;;;;4.19;77.08;99585.48;104574;1260;139975;-66
2024/03/27 04:36:32;;;;;;;25.30;17.10;;;;;;;4.18;77.15;99579.73;108735;1256;75659;-67
2024/03/27 04:38:59;;;;;;;25.80;16.90;;;;;;;4.20;77.17;99573.68;108752;1256;65561;-67
2024/03/27 04:41:25;;;;;;;25.60;16.80;;;;;;;4.21;77.08;99572.19;108639;1262;138768;-68
2024/03/27 04:43:52;;;;;;;24.30;17.10;;;;;;;4.24;77.17;99568.10;108767;1256;60086;-68
2024/03/27 04:46:19;;;;;;;26.50;16.20;;;;;;;4.28;77.12;99569.60;107701;1256;138917;-61
2024/03/27 04:48:45;;;;;;;25.40;16.20;;;;;;;4.32;77.22;99568.33;104560;1257;76524;-62
2024/03/27 04:51:12;;;;;;;24.60;15.30;;;;;;;4.37;77.19;99570.39;104871;1256;64927;-62
2024/03/27 04:53:39;;;;;;;25.80;17.00;;;;;;;4.41;77.27;99570.86;104695;1259;137908;-67
2024/03/27 04:56:05;;;;;;;25.40;18.10;;;;;;;4.45;77.11;99572.23;104990;1256;62057;-67
2024/03/27 04:58:32;;;;;;;24.40;16.30;;;;;;;4.47;77.09;99567.94;104683;1262;138146;-67
2024/03/27 05:00:59;;;;;;;23.40;16.60;;;;;;;4.50;77.02;99562.09;104763;1261;75318;-67
2024/03/27 05:03:26;;;;;;;23.70;16.80;;;;;;;4.53;77.06;99561.84;104812;1261;67088;-62
2024/03/27 05:05:53;;;;;;;28.50;16.80;;;;;;;4.55;77.06;99558.61;104585;1257;138315;-62
2024/03/27 05:08:19;;;;;;;22.20;16.10;;;;;;;4.58;77.03;99555.07;104824;1259;62004;-65
2024/03/27 05:10:46;;;;;;;25.10;17.50;;;;;;;4.63;77.13;99559.38;104787;1263;138612;-63
2024/03/27 05:13:12;;;;;;;24.90;17.10;;;;;;;4.69;77.17;99555.03;104684;1272;74664;-64
2024/03/27 05:15:39;;;;;;;22.30;16.90;;;;;;;4.78;77.23;99557.39;104708;1256;64896;-63
2024/03/27 05:18:07;;;;;;;26.30;17.10;;;;;;;4.87;77.03;99556.40;108815;1256;139107;-63
2024/03/27 05:20:34;;;;;;;23.20;15.50;;;;;;;4.92;77.11;99554.65;109034;1256;59829;-63
2024/03/27 05:23:01;;;;;;;24.70;16.50;;;;;;;5.00;77.17;99550.00;108859;1256;138597;-63
2024/03/27 05:25:27;;;;;;;29.10;18.00;;;;;;;5.09;77.10;99546.77;109042;1256;75094;-63
2024/03/27 05:27:54;;;;;;;27.20;20.70;;;;;;;5.18;76.94;99544.42;108805;1256;66188;-64
2024/03/27 05:30:21;;;;;;;32.50;22.20;;;;;;;5.28;76.89;99539.81;108663;1255;138615;-63
2024/03/27 05:32:47;;;;;;;36.20;24.10;;;;;;;5.38;76.77;99533.82;107170;1257;61779;-63
2024/03/27 05:35:14;;;;;;;32.30;22.40;;;;;;;5.48;76.88;99535.98;104582;1257;138177;-63
2024/03/27 05:37:40;;;;;;;33.60;23.10;;;;;;;5.56;76.76;99530.96;104517;1261;76486;-63
2024/03/27 05:40:07;;;;;;;31.40;22.10;;;;;;;5.64;76.71;99532.39;104695;1259;138575;-62
2024/03/27 05:42:35;;;;;;;31.60;23.40;;;;;;;5.74;76.64;99532.46;104956;1260;71746;-62
2024/03/27 05:45:02;;;;;;;29.10;22.10;;;;;;;5.83;76.61;99526.58;104938;1259;62312;-62
2024/03/27 05:47:28;;;;;;;33.80;23.40;;;;;;;5.88;76.42;99522.34;104829;1256;138491;-63
2024/03/27 05:49:55;;;;;;;28.40;22.00;;;;;;;5.93;76.43;99519.67;104927;1261;75852;-63
2024/03/27 05:52:22;;;;;;;27.80;21.50;;;;;;;5.99;76.37;99518.82;104779;1257;139345;-64
2024/03/27 05:54:49;;;;;;;29.70;19.60;;;;;;;6.05;76.31;99513.91;104839;1261;71942;-63
2024/03/27 05:57:15;;;;;;;27.10;18.90;;;;;;;6.13;76.22;99516.02;104840;1257;62103;-63
2024/03/27 05:59:42;;;;;;;27.00;18.80;;;;;;;6.25;76.26;99512.27;104689;1256;138676;-63
2024/03/27 06:02:09;;;;;;;23.60;17.70;;;;;;;6.42;76.38;99508.98;104829;1259;76162;-62
2024/03/27 06:04:36;;;;;;;24.40;17.50;;;;;;;6.58;76.15;99508.65;104661;1261;139131;-62
2024/03/27 06:07:02;;;;;;;24.00;16.50;;;;;;;6.74;75.97;99503.20;104885;1262;72723;-63
2024/03/27 06:09:29;;;;;;;23.70;16.70;;;;;;;6.89;75.78;99495.64;104791;1260;60904;-62
2024/03/27 06:11:55;;;;;;;22.60;16.60;;;;;;;7.05;75.72;99494.21;104657;1257;138858;-63
2024/03/27 06:14:22;;;;;;;24.80;15.60;;;;;;;7.19;75.51;99487.67;104676;1260;74626;-63
2024/03/27 06:16:49;;;;;;;23.10;15.80;;;;;;;7.30;75.19;99486.83;104735;1260;138139;-61
2024/03/27 06:19:16;;;;;;;23.50;16.90;;;;;;;7.37;75.00;99489.40;104694;1257;71813;-62
2024/03/27 06:21:43;;;;;;;25.50;17.00;;;;;;;7.42;74.68;99487.05;104831;1258;62372;-62
2024/03/27 06:24:09;;;;;;;21.30;15.10;;;;;;;7.44;74.46;99487.42;104710;1260;138135;-67
2024/03/27 06:26:36;;;;;;;23.10;16.50;;;;;;;7.41;74.12;99484.41;104680;1259;76597;-68
2024/03/27 06:29:03;;;;;;;25.70;16.90;;;;;;;7.37;73.95;99477.55;104712;1260;138037;-68
2024/03/27 06:31:29;;;;;;;23.00;15.40;;;;;;;7.36;74.00;99475.59;104802;1257;73093;-68
2024/03/27 06:33:56;;;;;;;29.70;18.90;;;;;;;7.36;73.90;99481.35;104797;1260;62137;-68
2024/03/27 06:36:23;;;;;;;30.30;19.40;;;;;;;7.34;73.84;99477.30;104745;1256;62058;-68
2024/03/27 06:38:50;;;;;;;32.60;19.70;;;;;;;7.33;73.82;99475.02;104839;1260;76165;-68
2024/03/27 06:41:17;;;;;;;28.00;17.60;;;;;;;7.33;73.76;99478.86;104492;1262;140033;-67
2024/03/27 06:43:46;;;;;;;28.60;20.00;;;;;;;7.34;73.73;99475.90;105637;1261;72098;-68
2024/03/27 06:46:13;;;;;;;31.10;18.60;;;;;;;7.38;73.75;99478.77;105691;1260;139045;-67
2024/03/27 06:48:56;;;;;;;31.70;19.30;;;;;;;7.43;73.76;99476.76;105737;1258;62062;-68
2024/03/27 06:51:23;;;;;;;28.20;18.50;;;;;;;7.49;73.81;99469.88;105867;1256;74261;-72
2024/03/27 06:53:49;;;;;;;22.70;17.10;;;;;;;7.52;73.74;99469.92;105763;1260;137932;-72
2024/03/27 06:56:16;;;;;;;24.90;17.70;;;;;;;7.57;73.72;99465.30;106093;1261;71894;-72
2024/03/27 06:58:42;;;;;;;24.50;16.70;;;;;;;7.63;73.76;99462.77;105932;1262;138851;-72
2024/03/27 07:01:09;;;;;;;19.70;14.90;;;;;;;7.66;73.76;99461.59;106193;1260;61975;-72
2024/03/27 07:03:36;;;;;;;24.50;16.00;;;;;;;7.70;73.66;99460.62;106119;1260;73985;-72
2024/03/27 07:06:03;;;;;;;29.50;17.50;;;;;;;7.73;73.59;99461.02;105769;1256;138720;-72
2024/03/27 07:08:29;;;;;;;32.00;21.60;;;;;;;7.81;73.64;99458.69;105993;1261;73802;-72
2024/03/27 07:11:02;;;;;;;25.20;16.60;;;;;;;7.87;73.50;99454.08;105803;1257;139154;-72
2024/03/27 07:13:29;;;;;;;23.90;16.00;;;;;;;7.92;73.43;99448.73;105791;1262;62051;-72
2024/03/27 07:15:56;;;;;;;22.10;15.60;;;;;;;8.00;73.28;99451.98;105833;1258;75812;-72
2024/03/27 07:18:23;;;;;;;23.90;15.60;;;;;;;8.02;73.01;99452.54;105920;1256;65792;-72
2024/03/27 07:20:56;;;;;;;23.00;14.10;;;;;;;8.02;72.97;99451.66;105759;1257;72799;-71
2024/03/27 07:23:23;;;;;;;23.30;17.20;;;;;;;8.04;72.91;99447.15;105823;1261;138806;-72
2024/03/27 07:25:49;;;;;;;18.20;14.40;;;;;;;8.09;72.81;99442.52;105811;1256;62039;-72
2024/03/27 07:28:16;;;;;;;20.70;14.30;;;;;;;8.17;72.90;99440.88;105879;1262;138109;-71
2024/03/27 07:30:42;;;;;;;22.80;14.80;;;;;;;8.28;73.07;99435.76;105914;1260;64940;-72
2024/03/27 07:33:09;;;;;;;22.70;14.20;;;;;;;8.39;72.89;99433.48;105908;1260;71594;-72
2024/03/27 07:35:35;;;;;;;21.90;15.20;;;;;;;8.48;72.76;99433.61;105673;1260;138405;-71
2024/03/27 07:38:02;;;;;;;19.80;14.00;;;;;;;8.58;72.56;99424.98;105827;1261;62008;-72
2024/03/27 07:40:30;;;;;;;20.30;14.30;;;;;;;8.69;72.47;99428.08;105665;1261;139472;-72
2024/03/27 07:42:56;;;;;;;20.70;13.90;;;;;;;8.82;72.37;99426.30;105765;1262;66135;-72
2024/03/27 07:45:23;;;;;;;18.10;12.60;;;;;;;8.93;72.12;99424.48;105739;1257;62052;-72
2024/03/27 07:47:50;;;;;;;15.90;11.30;;;;;;;9.03;71.70;99432.29;105658;1262;138357;-72
2024/03/27 07:50:17;;;;;;;16.30;11.70;;;;;;;9.10;71.42;99432.19;105927;1256;62153;-72
2024/03/27 07:52:44;;;;;;;18.60;11.80;;;;;;;9.19;71.22;99424.91;105600;1258;138570;-71
2024/03/27 07:55:10;;;;;;;16.00;11.60;;;;;;;9.31;71.20;99423.63;105800;1257;65035;-72
2024/03/27 07:57:38;;;;;;;15.70;11.20;;;;;;;9.43;70.93;99424.78;105913;1260;72626;-72
2024/03/27 08:00:11;;;;;;;17.40;11.80;;;;;;;9.52;70.60;99419.60;105607;1263;137963;-72
2024/03/27 08:02:38;;;;;;;17.80;11.40;;;;;;;9.64;70.63;99417.77;107705;1260;62135;-72
2024/03/27 08:05:06;;;;;;;18.10;12.40;;;;;;;9.75;70.39;99417.84;105634;1258;138173;-72
2024/03/27 08:07:33;;;;;;;19.10;12.40;;;;;;;9.86;70.29;99413.54;105724;1263;66430;-72
2024/03/27 08:10:00;;;;;;;20.20;12.30;;;;;;;9.95;69.98;99413.94;105546;1262;138706;-71
2024/03/27 08:12:26;;;;;;;16.00;11.50;;;;;;;10.00;69.50;99412.21;105775;1263;62727;-71
2024/03/27 08:14:53;;;;;;;14.10;10.90;;;;;;;10.00;69.22;99408.18;105766;1262;61921;-72
2024/03/27 08:17:20;;;;;;;16.00;10.70;;;;;;;10.04;69.14;99407.69;105694;1260;138185;-71
2024/03/27 08:19:46;;;;;;;16.10;11.90;;;;;;;10.07;69.00;99412.08;105855;1260;66309;-71
2024/03/27 08:22:13;;;;;;;17.00;11.80;;;;;;;10.10;68.68;99413.48;105787;1256;138517;-71
2024/03/27 08:24:39;;;;;;;19.90;12.50;;;;;;;10.15;68.75;99409.14;105815;1260;61943;-71
2024/03/27 08:27:06;;;;;;;19.40;12.50;;;;;;;10.20;68.66;99408.64;105875;1262;61997;-71
2024/03/27 08:29:33;;;;;;;17.20;12.00;;;;;;;10.22;68.46;99406.02;105745;1257;139143;-68
2024/03/27 08:32:00;;;;;;;17.80;12.20;;;;;;;10.23;68.17;99404.45;105697;1257;66476;-68
2024/03/27 08:34:27;;;;;;;16.20;10.00;;;;;;;10.24;68.10;99398.67;105715;1262;138614;-71
2024/03/27 08:36:57;;;;;;;18.50;11.80;;;;;;;10.30;67.97;99398.19;104796;1262;276712;-72
2024/03/27 08:39:26;;;;;;;14.00;10.50;;;;;;;10.39;67.89;99390.53;105707;1262;62612;-71
2024/03/27 08:41:56;;;;;;;17.00;10.10;;;;;;;10.49;67.71;99387.40;105557;1257;138211;-71
2024/03/27 08:44:22;;;;;;;13.90;9.90;;;;;;;10.55;67.40;99382.16;105773;1257;66188;-72
2024/03/27 08:46:49;;;;;;;13.40;9.90;;;;;;;10.62;67.34;99383.07;105645;1262;138132;-72
2024/03/27 08:49:16;;;;;;;12.30;9.60;;;;;;;10.70;67.02;99378.35;105749;1262;62209;-72
2024/03/27 08:51:42;;;;;;;15.00;10.20;;;;;;;10.76;66.71;99368.00;105768;1262;62026;-72
2024/03/27 08:54:09;;;;;;;16.90;9.70;;;;;;;10.80;66.73;99368.02;107500;1260;138559;-72
2024/03/27 08:56:36;;;;;;;11.60;9.30;;;;;;;10.87;66.71;99362.75;105839;1263;64178;-72
2024/03/27 08:59:02;;;;;;;12.90;10.80;;;;;;;10.94;66.43;99359.77;104752;1270;138103;-71
2024/03/27 09:01:29;;;;;;;11.30;9.00;;;;;;;10.99;66.15;99358.90;104864;1261;62128;-71
2024/03/27 09:03:55;;;;;;;11.80;9.50;;;;;;;11.05;66.03;99347.16;104921;1260;62056;-71
2024/03/27 09:06:22;;;;;;;14.60;9.40;;;;;;;11.12;65.87;99338.55;105725;1257;138080;-71
2024/03/27 09:08:48;;;;;;;15.90;8.80;;;;;;;11.17;65.61;99335.40;105892;1261;66568;-71
2024/03/27 09:11:15;;;;;;;17.50;10.30;;;;;;;11.22;65.59;99332.76;105842;1262;138302;-71
2024/03/27 09:13:42;;;;;;;14.20;8.60;;;;;;;11.27;65.43;99326.08;105921;1262;62170;-71
2024/03/27 09:16:08;;;;;;;14.60;9.90;;;;;;;11.33;65.19;99323.61;105920;1257;138390;-71
2024/03/27 09:18:35;;;;;;;11.40;8.40;;;;;;;11.37;65.01;99318.52;105935;1257;75540;-70
2024/03/27 09:21:02;;;;;;;13.30;9.00;;;;;;;11.43;64.79;99320.79;105909;1261;65465;-70
2024/03/27 09:23:29;;;;;;;14.40;9.70;;;;;;;11.51;64.70;99321.15;105694;1257;138199;-70
2024/03/27 09:25:56;;;;;;;14.20;9.40;;;;;;;11.64;64.70;99319.88;105903;1257;62051;-70
2024/03/27 09:28:23;;;;;;;11.90;9.40;;;;;;;11.80;64.68;99321.41;105771;1260;138488;-70
2024/03/27 09:30:49;;;;;;;13.60;9.30;;;;;;;11.96;64.54;99321.23;105891;1261;75885;-70
2024/03/27 09:33:16;;;;;;;11.70;9.10;;;;;;;12.06;64.24;99317.67;105838;1257;64169;-71
2024/03/27 09:35:49;;;;;;;10.60;8.90;;;;;;;12.18;64.15;99315.67;105658;1262;138101;-71
2024/03/27 09:38:16;;;;;;;10.80;8.40;;;;;;;12.36;64.13;99306.98;105814;1257;62161;-70
2024/03/27 09:40:47;;;;;;;13.60;8.40;;;;;;;12.49;63.74;99299.88;105557;1257;138288;-70
2024/03/27 09:43:14;;;;;;;16.80;8.60;;;;;;;12.62;63.52;99297.85;106497;1258;75558;-71
2024/03/27 09:45:43;;;;;;;10.00;8.40;;;;;;;12.72;63.21;99296.71;105750;1260;67543;-71
2024/03/27 09:48:10;;;;;;;13.30;8.70;;;;;;;12.77;63.09;99299.33;107240;1258;139045;-71
2024/03/27 09:50:36;;;;;;;12.00;8.40;;;;;;;12.79;62.89;99305.29;105658;1261;60281;-71
2024/03/27 09:53:06;;;;;;;12.10;9.00;;;;;;;12.84;62.94;99301.39;105775;1262;138023;-70
2024/03/27 09:55:36;;;;;;;12.70;8.80;;;;;;;12.89;62.76;99301.36;105811;1256;82515;-71
2024/03/27 09:58:16;;;;;;;11.70;8.70;;;;;;;12.91;62.72;99309.43;105635;1257;138171;-70
2024/03/27 10:00:42;;;;;;;12.10;8.70;;;;;;;12.95;62.65;99308.35;105829;1258;74234;-71
2024/03/27 10:03:09;;;;;;;12.00;8.10;;;;;;;12.95;62.47;99308.35;105820;1256;62173;-72
2024/03/27 10:05:37;;;;;;;11.10;8.90;;;;;;;12.98;62.35;99302.33;105625;1260;137980;-71
2024/03/27 10:08:06;;;;;;;10.70;8.20;;;;;;;12.97;62.11;99300.76;105686;1257;75590;-71
2024/03/27 10:10:33;;;;;;;12.70;8.30;;;;;;;12.93;61.90;99295.16;105732;1257;139367;-71
2024/03/27 10:13:00;;;;;;;14.90;9.70;;;;;;;12.92;61.96;99302.20;105682;1262;72617;-71
2024/03/27 10:15:27;;;;;;;13.20;8.80;;;;;;;12.96;62.03;99295.66;105708;1256;62162;-71
2024/03/27 10:17:54;;;;;;;12.70;8.60;;;;;;;13.05;62.15;99291.18;105629;1257;138043;-70
2024/03/27 10:20:20;;;;;;;11.50;8.00;;;;;;;13.15;62.04;99286.33;105890;1257;74975;-70
2024/03/27 10:22:47;;;;;;;9.30;6.90;;;;;;;13.20;61.65;99284.71;105651;1257;138562;-70
2024/03/27 10:25:14;;;;;;;10.40;8.90;;;;;;;13.21;61.31;99293.33;105701;1266;73165;-71
2024/03/27 10:27:40;;;;;;;12.80;8.40;;;;;;;13.22;61.09;99291.73;105757;1257;62165;-71
2024/03/27 10:30:10;;;;;;;12.50;8.80;;;;;;;13.24;61.07;99285.20;105761;1258;138468;-71
2024/03/27 10:32:37;;;;;;;13.90;8.10;;;;;;;13.26;61.04;99274.97;105682;1258;73162;-71
2024/03/27 10:35:04;;;;;;;15.30;9.40;;;;;;;13.29;60.96;99278.99;105769;1257;137963;-71
2024/03/27 10:37:32;;;;;;;12.10;8.40;;;;;;;13.32;60.94;99276.00;105835;1258;73221;-71
2024/03/27 10:40:00;;;;;;;14.50;7.50;;;;;;;13.37;61.03;99274.55;105828;1257;138456;-69
2024/03/27 10:42:27;;;;;;;10.80;7.50;;;;;;;13.44;60.70;99277.64;105847;1260;61988;-71
2024/03/27 10:44:59;;;;;;;12.00;7.90;;;;;;;13.51;60.40;99281.45;105898;1257;74762;-71
2024/03/27 10:47:34;;;;;;;13.30;8.50;;;;;;;13.55;60.24;99282.99;105626;1263;138284;-71
2024/03/27 10:50:04;;;;;;;11.10;8.40;;;;;;;13.56;60.16;99280.50;105929;1257;72444;-70
2024/03/27 10:52:33;;;;;;;11.10;8.30;;;;;;;13.60;59.98;99277.13;105732;1257;138369;-70
2024/03/27 10:55:01;;;;;;;10.90;7.20;;;;;;;13.65;59.79;99268.08;105840;1260;62176;-71
2024/03/27 10:57:28;;;;;;;13.30;6.10;;;;;;;13.71;59.37;99266.41;105636;1257;75983;-71
2024/03/27 10:59:54;;;;;;;12.70;7.10;;;;;;;13.78;59.05;99270.04;105708;1257;138029;-71
2024/03/27 11:02:21;;;;;;;8.20;5.90;;;;;;;13.85;58.78;99268.73;105717;1260;72080;-71
2024/03/27 11:05:14;;;;;;;16.50;10.20;;;;;;;13.91;58.58;99267.24;105705;1260;138354;-71
2024/03/27 11:07:41;;;;;;;8.10;6.20;;;;;;;13.99;58.47;99265.91;105714;1257;62043;-70
2024/03/27 11:10:08;;;;;;;8.70;7.00;;;;;;;14.06;58.29;99265.63;104531;1257;138559;-70
2024/03/27 11:12:35;;;;;;;13.00;7.90;;;;;;;14.10;57.99;99261.88;104707;1261;67276;-70
2024/03/27 11:15:05;;;;;;;12.20;6.60;;;;;;;14.14;57.90;99263.94;104777;1258;71039;-70